TimeEDT,TemperatureF,Dew PointF,Humidity,Sea Level PressureIn,VisibilityMPH,Wind Direction,Wind SpeedMPH,Gust SpeedMPH,PrecipitationIn,Events,Conditions,WindDirDegrees,DateUTC
12:53 AM,77.0,72.0,84,30.10,10.0,SSE,3.5,-,N/A,,Clear,150,2013-08-10 04:53:00
1:53 AM,75.9,73.0,91,30.09,10.0,Calm,Calm,-,N/A,,Clear,0,2013-08-10 05:53:00
2:53 AM,75.9,73.0,91,30.09,10.0,SE,3.5,-,N/A,,Clear,140,2013-08-10 06:53:00
3:53 AM,75.9,73.0,91,30.09,10.0,Calm,Calm,-,N/A,,Clear,0,2013-08-10 07:53:00
4:53 AM,75.0,73.0,94,30.09,10.0,SE,4.6,-,N/A,,Overcast,140,2013-08-10 08:53:00
5:53 AM,75.0,73.0,94,30.09,10.0,Calm,Calm,-,N/A,,Clear,0,2013-08-10 09:53:00
6:53 AM,75.0,73.0,94,30.12,10.0,Calm,Calm,-,N/A,,Clear,0,2013-08-10 10:53:00
7:53 AM,75.9,73.9,94,30.12,10.0,Calm,Calm,-,N/A,,Clear,0,2013-08-10 11:53:00
8:53 AM,80.1,75.0,85,30.13,10.0,SSE,3.5,-,N/A,,Clear,150,2013-08-10 12:53:00
9:53 AM,84.0,75.0,74,30.14,10.0,Variable,3.5,-,N/A,,Partly Cloudy,0,2013-08-10 13:53:00
10:53 AM,86.0,73.9,67,30.15,10.0,South,4.6,-,N/A,,Mostly Cloudy,170,2013-08-10 14:53:00
11:24 AM,87.8,73.4,62,30.15,10.0,South,3.5,-,N/A,,Scattered Clouds,170,2013-08-10 15:24:00
11:53 AM,88.0,73.9,63,30.15,10.0,South,6.9,-,N/A,,Scattered Clouds,180,2013-08-10 15:53:00
12:53 PM,89.1,72.0,57,30.14,10.0,South,6.9,-,N/A,,Scattered Clouds,170,2013-08-10 16:53:00
1:53 PM,91.0,71.1,52,30.14,10.0,SSE,5.8,-,N/A,,Partly Cloudy,160,2013-08-10 17:53:00
1:56 PM,89.6,71.6,55,30.14,10.0,SE,5.8,-,N/A,,Mostly Cloudy,130,2013-08-10 17:56:00
2:53 PM,91.0,70.0,50,30.12,10.0,SSE,8.1,-,N/A,,Mostly Cloudy,150,2013-08-10 18:53:00
3:53 PM,91.9,69.1,47,30.09,10.0,SE,8.1,-,N/A,,Mostly Cloudy,140,2013-08-10 19:53:00
4:53 PM,93.0,69.1,45,30.08,10.0,South,9.2,-,N/A,,Unknown,180,2013-08-10 20:53:00
5:45 PM,80.6,71.6,74,30.10,10.0,ESE,9.2,-,0.00,,Overcast,120,2013-08-10 21:45:00
5:53 PM,80.1,73.0,79,30.10,10.0,ESE,5.8,-,0.00,Rain,Light Rain,110,2013-08-10 21:53:00
6:53 PM,86.0,73.0,65,30.09,10.0,Calm,Calm,-,0.00,,Clear,0,2013-08-10 22:53:00
7:53 PM,84.9,75.0,72,30.10,10.0,SSE,3.5,-,N/A,,Partly Cloudy,160,2013-08-10 23:53:00
8:53 PM,82.0,75.0,79,30.12,10.0,SSW,3.5,-,N/A,,Clear,210,2013-08-11 00:53:00
9:53 PM,81.0,73.9,79,30.14,10.0,Calm,Calm,-,N/A,,Clear,0,2013-08-11 01:53:00
10:53 PM,79.0,73.9,84,30.14,10.0,Calm,Calm,-,N/A,,Clear,0,2013-08-11 02:53:00
11:53 PM,78.1,73.9,87,30.14,10.0,Calm,Calm,-,N/A,,Clear,0,2013-08-11 03:53:00